createdAt,value
2022-12-28T08:37:28.651Z,82.45
2022-12-28T08:38:28.601Z,82.55
2022-12-28T08:39:28.627Z,82.62
2022-12-28T08:40:28.589Z,82.65
2022-12-28T08:41:28.590Z,82.62
2022-12-28T08:42:28.560Z,82.31
2022-12-28T08:43:28.549Z,82.35
2022-12-28T08:44:28.548Z,82.24
2022-12-28T08:45:28.668Z,82.10
2022-12-28T08:46:28.611Z,82.45
2022-12-28T08:47:28.501Z,82.45
2022-12-28T08:48:28.503Z,82.62
2022-12-28T08:49:28.518Z,82.45
2022-12-28T08:50:31.814Z,82.65
2022-12-28T08:51:28.468Z,82.31
2022-12-28T08:52:28.441Z,82.35
2022-12-28T08:53:28.458Z,82.41
2022-12-28T08:54:28.453Z,82.76
2022-12-28T08:55:28.426Z,82.21
2022-12-28T08:56:28.407Z,82.55
2022-12-28T08:57:28.407Z,82.31
2022-12-28T08:58:28.386Z,82.31
2022-12-28T08:59:28.392Z,82.71
2022-12-28T09:00:28.364Z,82.31
2022-12-28T09:01:28.458Z,82.51
2022-12-28T09:02:29.509Z,82.71
2022-12-28T09:03:28.349Z,82.51
2022-12-28T09:04:28.330Z,82.68
2022-12-28T09:05:28.301Z,82.62
2022-12-28T09:06:28.296Z,82.31
2022-12-28T09:07:29.288Z,82.82
2022-12-28T09:08:28.269Z,82.82
2022-12-28T09:09:28.281Z,82.71
2022-12-28T09:10:28.237Z,82.48
2022-12-28T09:11:28.240Z,82.21
2022-12-28T09:12:28.224Z,82.48
2022-12-28T09:13:28.205Z,82.57
2022-12-28T09:14:28.216Z,82.37
2022-12-28T09:15:28.196Z,83.29
2022-12-28T09:16:28.288Z,83.33
2022-12-28T09:17:28.176Z,83.33
2022-12-28T09:18:28.156Z,83.84
2022-12-28T09:19:28.170Z,83.95
2022-12-28T09:20:28.137Z,84.25
2022-12-28T09:21:28.118Z,84.87
2022-12-28T09:22:28.113Z,84.15
2022-12-28T09:23:28.111Z,84.36
2022-12-28T09:24:28.137Z,84.77
2022-12-28T09:25:28.089Z,84.05
2022-12-28T09:26:28.053Z,84.05
2022-12-28T09:27:28.057Z,84.05
2022-12-28T09:28:28.029Z,83.84
2022-12-28T09:29:28.037Z,83.95
2022-12-28T09:30:28.025Z,84.15
2022-12-28T09:31:28.122Z,84.05
2022-12-28T09:32:28.994Z,83.13
2022-12-28T09:33:27.997Z,84.05
2022-12-28T09:34:37.335Z,83.74
2022-12-28T09:35:28.984Z,83.54
2022-12-28T09:36:27.951Z,83.54
2022-12-28T09:37:28.930Z,83.81
2022-12-28T09:38:27.931Z,83.23
2022-12-28T09:39:27.941Z,83.39
2022-12-28T09:40:27.936Z,83.44
2022-12-28T09:41:27.923Z,83.95
2022-12-28T09:42:27.881Z,82.78
2022-12-28T09:43:27.876Z,83.39
2022-12-28T09:44:27.848Z,83.54
2022-12-28T09:45:27.855Z,82.98
2022-12-28T09:46:27.875Z,82.27
2022-12-28T09:47:28.834Z,82.13
2022-12-28T09:48:27.815Z,82.68
2022-12-28T09:49:27.808Z,82.27
2022-12-28T09:50:27.815Z,82.43
2022-12-28T09:51:27.783Z,82.57
2022-12-28T09:52:27.772Z,82.23
2022-12-28T09:53:27.762Z,82.34
2022-12-28T09:54:27.744Z,82.03
2022-12-28T09:55:27.741Z,82.03
2022-12-28T09:56:27.714Z,81.72
2022-12-28T09:57:27.724Z,81.72
2022-12-28T09:58:27.687Z,81.82
2022-12-28T09:59:27.689Z,81.62
2022-12-28T10:00:27.683Z,81.51
2022-12-28T10:01:27.906Z,82.03
2022-12-28T10:02:27.765Z,82.23
2022-12-28T10:03:27.662Z,82.03
2022-12-28T10:04:27.633Z,81.82
2022-12-28T10:05:27.624Z,81.51
2022-12-28T10:06:27.610Z,82.43
2022-12-28T10:07:27.605Z,81.93
2022-12-28T10:08:27.588Z,82.03
2022-12-28T10:09:27.582Z,82.03
2022-12-28T10:10:27.588Z,82.23
2022-12-28T10:11:27.548Z,82.03
2022-12-28T10:12:27.530Z,81.82
2022-12-28T10:14:28.506Z,81.72
2022-12-28T10:15:27.502Z,81.72
2022-12-28T10:16:27.556Z,81.41
2022-12-28T10:17:27.475Z,81.62
2022-12-28T10:18:27.461Z,81.62
2022-12-28T10:19:27.471Z,81.51
2022-12-28T10:20:27.460Z,81.31
2022-12-28T10:21:32.327Z,82.03
2022-12-28T10:22:28.414Z,82.13
2022-12-28T10:23:27.420Z,81.21
2022-12-28T10:24:32.162Z,81.88
2022-12-28T10:25:28.388Z,81.68
2022-12-28T10:26:27.396Z,81.68
2022-12-28T10:27:27.378Z,81.48
2022-12-28T10:28:27.365Z,81.38
2022-12-28T10:29:27.362Z,81.48
2022-12-28T10:30:27.502Z,81.48
2022-12-28T10:31:27.399Z,81.17
2022-12-28T10:32:27.313Z,81.48
2022-12-28T10:33:27.308Z,81.07
2022-12-28T10:34:33.341Z,80.76
2022-12-28T10:35:28.284Z,81.38
2022-12-28T10:36:31.593Z,81.27
2022-12-28T10:37:27.254Z,80.46
2022-12-28T10:38:27.237Z,80.97
2022-12-28T10:39:27.234Z,80.76
2022-12-28T10:40:27.211Z,81.17
2022-12-28T10:41:27.231Z,81.17
2022-12-28T10:42:27.231Z,81.27
2022-12-28T10:43:27.193Z,81.38
2022-12-28T10:44:39.448Z,81.27
2022-12-28T10:45:28.195Z,81.13
2022-12-28T10:46:27.186Z,81.07
2022-12-28T10:47:27.149Z,81.27
2022-12-28T10:48:27.122Z,80.97
2022-12-28T10:49:27.120Z,80.62
2022-12-28T10:50:37.097Z,80.52
2022-12-28T10:51:28.153Z,80.62
2022-12-28T10:52:27.080Z,80.56
2022-12-28T10:53:27.079Z,81.03
2022-12-28T10:54:27.845Z,80.83
2022-12-28T10:55:27.044Z,80.62
2022-12-28T10:56:27.081Z,80.83
2022-12-28T10:57:27.067Z,80.32
2022-12-28T10:58:30.121Z,80.11
2022-12-28T10:59:27.013Z,80.52
2022-12-28T11:00:27.000Z,80.83
2022-12-28T11:01:27.219Z,80.87
2022-12-28T11:02:27.213Z,80.83
2022-12-28T11:03:27.095Z,80.66
2022-12-28T11:04:26.945Z,81.13
2022-12-28T11:05:26.950Z,81.17
2022-12-28T11:06:27.906Z,80.66
2022-12-28T11:07:26.935Z,80.83
2022-12-28T11:08:26.895Z,80.62
2022-12-28T11:09:26.893Z,81.07
2022-12-28T11:10:26.886Z,80.87
2022-12-28T11:11:26.866Z,80.66
2022-12-28T11:12:26.862Z,80.97
2022-12-28T11:13:26.855Z,80.66
2022-12-28T11:14:26.827Z,81.54
2022-12-28T11:15:26.816Z,81.38
2022-12-28T11:16:26.908Z,81.58
2022-12-28T11:17:26.865Z,81.68
2022-12-28T11:18:26.799Z,81.99
2022-12-28T11:19:26.773Z,81.38
2022-12-28T11:20:26.762Z,81.68
2022-12-28T11:21:26.759Z,81.38
2022-12-28T11:22:26.741Z,81.34
2022-12-28T11:23:26.746Z,81.48
2022-12-28T11:24:26.757Z,81.17
2022-12-28T11:25:27.732Z,81.44
2022-12-28T11:26:26.693Z,81.07
2022-12-28T11:27:27.687Z,81.38
2022-12-28T11:28:26.683Z,81.24
2022-12-28T11:29:26.658Z,80.83
2022-12-28T11:30:26.661Z,80.66
2022-12-28T11:31:26.687Z,81.07
2022-12-28T11:32:26.625Z,80.66
2022-12-28T11:33:26.690Z,81.03
2022-12-28T11:34:26.616Z,80.93
2022-12-28T11:35:26.602Z,81.17
2022-12-28T11:36:26.606Z,80.97
2022-12-28T11:37:26.589Z,80.83
2022-12-28T11:38:26.575Z,81.03
2022-12-28T11:39:26.552Z,81.07
2022-12-28T11:40:26.545Z,81.03
2022-12-28T11:41:33.466Z,80.73
2022-12-28T11:42:39.182Z,80.93
2022-12-28T11:43:27.530Z,81.13
2022-12-28T11:44:26.503Z,80.21
2022-12-28T11:45:26.538Z,80.83
2022-12-28T11:46:26.493Z,80.52
2022-12-28T11:47:28.574Z,80.73
2022-12-28T11:48:26.458Z,80.62
2022-12-28T11:49:26.459Z,80.35
2022-12-28T11:50:26.601Z,80.25
2022-12-28T11:51:26.417Z,79.91
2022-12-28T11:52:26.410Z,79.91
2022-12-28T11:53:26.474Z,80.15
2022-12-28T11:54:26.401Z,79.39
2022-12-28T11:55:26.376Z,79.70
2022-12-28T11:56:26.390Z,79.64
2022-12-28T11:57:26.351Z,80.01
2022-12-28T11:58:26.343Z,79.64
2022-12-28T11:59:26.349Z,79.64
2022-12-28T12:00:26.308Z,79.74
2022-12-28T12:01:26.408Z,79.84
2022-12-28T12:02:26.354Z,79.74
2022-12-28T12:03:26.298Z,79.02
2022-12-28T12:04:26.282Z,79.23
2022-12-28T12:05:26.284Z,79.33
2022-12-28T12:06:32.092Z,79.23
2022-12-28T12:07:31.729Z,79.53
2022-12-28T12:08:27.216Z,79.19
2022-12-28T12:09:26.225Z,79.33
2022-12-28T12:10:26.198Z,79.84
2022-12-28T12:11:26.194Z,79.53
2022-12-28T12:12:26.185Z,79.74
2022-12-28T12:13:26.205Z,78.82
2022-12-28T12:14:26.159Z,78.52
2022-12-28T12:15:27.143Z,78.72
2022-12-28T12:16:26.145Z,78.72
2022-12-28T12:17:26.132Z,78.41
2022-12-28T12:18:26.119Z,78.68
2022-12-28T12:19:26.100Z,78.31
2022-12-28T12:20:26.079Z,78.61
2022-12-28T12:21:26.098Z,78.52
2022-12-28T12:22:26.065Z,77.90
2022-12-28T12:23:26.055Z,77.76
2022-12-28T12:24:26.052Z,77.97
2022-12-28T12:25:26.039Z,78.20
2022-12-28T12:26:26.027Z,77.97
2022-12-28T12:27:26.002Z,78.11
2022-12-28T12:28:26.008Z,78.17
2022-12-28T12:29:32.570Z,78.38
2022-12-28T12:30:25.985Z,78.72
2022-12-28T12:31:25.986Z,79.43
2022-12-28T12:32:25.942Z,79.43
2022-12-28T12:33:25.943Z,79.23
2022-12-28T12:34:25.933Z,79.13
2022-12-28T12:35:26.903Z,78.31
2022-12-28T12:36:25.898Z,78.52
2022-12-28T12:37:25.926Z,78.52
2022-12-28T12:38:26.404Z,78.20
2022-12-28T12:39:25.892Z,78.52
2022-12-28T12:40:25.867Z,78.31
2022-12-28T12:41:25.852Z,78.00
2022-12-28T12:42:25.833Z,78.31
2022-12-28T12:43:25.819Z,78.27
2022-12-28T12:44:25.818Z,78.52
2022-12-28T12:45:25.845Z,77.70
2022-12-28T12:46:25.885Z,77.70
2022-12-28T12:47:25.771Z,77.39
2022-12-28T12:48:25.776Z,77.19
2022-12-28T12:49:25.760Z,77.49
2022-12-28T12:50:25.756Z,77.49
2022-12-28T12:51:25.740Z,76.94
2022-12-28T12:52:25.730Z,77.49
2022-12-28T12:53:26.744Z,77.76
2022-12-28T12:54:25.695Z,78.11
2022-12-28T12:55:25.717Z,78.27
2022-12-28T12:56:25.688Z,77.80
2022-12-28T12:57:25.669Z,78.11
2022-12-28T12:58:25.669Z,78.31
2022-12-28T12:59:25.640Z,77.39
2022-12-28T13:00:25.630Z,77.29
2022-12-28T13:01:25.757Z,77.29
2022-12-28T13:02:25.776Z,77.66
2022-12-28T13:03:25.623Z,77.04
2022-12-28T13:04:25.594Z,77.19
2022-12-28T13:05:25.587Z,77.39
2022-12-28T13:06:25.579Z,76.26
2022-12-28T13:07:25.558Z,77.19
2022-12-28T13:08:25.565Z,76.94
2022-12-28T13:09:25.548Z,76.37
2022-12-28T13:10:25.520Z,77.15
2022-12-28T13:11:25.515Z,77.15
2022-12-28T13:12:25.516Z,76.57
2022-12-28T13:13:25.471Z,77.29
2022-12-28T13:14:25.484Z,76.88
2022-12-28T13:15:25.463Z,76.74
2022-12-28T13:16:25.472Z,76.37
2022-12-28T13:17:25.453Z,76.67
2022-12-28T13:19:26.411Z,76.57
2022-12-28T13:20:25.403Z,77.25
2022-12-28T13:21:25.383Z,76.37
2022-12-28T13:22:25.391Z,76.53
2022-12-28T13:23:25.374Z,77.25
2022-12-28T13:24:25.351Z,77.29
2022-12-28T13:25:25.381Z,76.57
2022-12-28T13:26:25.351Z,75.92
2022-12-28T13:27:25.348Z,76.33
2022-12-28T13:28:25.347Z,76.47
2022-12-28T13:29:25.307Z,76.74
2022-12-28T13:30:25.298Z,76.33
2022-12-28T13:31:25.285Z,76.37
2022-12-28T13:32:26.296Z,75.96
2022-12-28T13:33:25.253Z,76.43
2022-12-28T13:34:25.258Z,76.26
2022-12-28T13:35:25.236Z,76.33
2022-12-28T13:36:25.238Z,76.47
2022-12-28T13:37:25.215Z,75.85
2022-12-28T13:38:25.207Z,76.06
2022-12-28T13:39:25.190Z,75.62
2022-12-28T13:40:25.186Z,75.51
2022-12-28T13:41:25.182Z,75.75
2022-12-28T13:42:25.166Z,76.06
2022-12-28T13:43:25.158Z,75.82
2022-12-28T13:44:25.125Z,76.03
2022-12-28T13:45:25.112Z,76.23
2022-12-28T13:46:25.152Z,75.92
2022-12-28T13:47:25.118Z,76.03
2022-12-28T13:48:26.104Z,76.03
2022-12-28T13:49:25.081Z,76.43
2022-12-28T13:50:25.072Z,76.06
2022-12-28T13:51:25.056Z,75.62
2022-12-28T13:52:25.054Z,76.03
2022-12-28T13:53:25.019Z,75.51
2022-12-28T13:54:25.032Z,75.55
2022-12-28T13:55:25.000Z,75.62
2022-12-28T13:56:25.008Z,75.71
2022-12-28T13:58:25.979Z,75.51
2022-12-28T13:59:24.968Z,75.82
2022-12-28T14:00:24.960Z,75.82
2022-12-28T14:01:26.051Z,75.62
2022-12-28T14:02:25.148Z,75.21
2022-12-28T14:03:24.919Z,75.31
2022-12-28T14:04:53.881Z,75.41
2022-12-28T14:05:25.897Z,74.49
2022-12-28T14:06:24.875Z,75.51
2022-12-28T14:07:24.916Z,75.41
2022-12-28T14:08:24.884Z,75.00
2022-12-28T14:09:24.927Z,75.41
2022-12-28T14:10:25.843Z,74.69
2022-12-28T14:11:24.817Z,74.59
2022-12-28T14:12:24.818Z,74.59
2022-12-28T14:13:24.956Z,74.80
2022-12-28T14:14:24.798Z,75.31
2022-12-28T14:15:24.775Z,75.51
2022-12-28T14:16:24.832Z,75.31
2022-12-28T14:17:39.626Z,75.21
2022-12-28T14:18:24.753Z,75.27
2022-12-28T14:19:24.742Z,75.41
2022-12-28T14:20:24.722Z,75.07
2022-12-28T14:21:25.717Z,74.66
2022-12-28T14:22:24.696Z,75.48
2022-12-28T14:23:24.708Z,74.39
2022-12-28T14:24:24.674Z,73.54
2022-12-28T14:25:24.656Z,73.54
2022-12-28T14:26:24.663Z,74.05
2022-12-28T14:27:24.638Z,73.84
2022-12-28T14:28:24.647Z,74.18
2022-12-28T14:29:24.667Z,73.94
2022-12-28T14:30:24.640Z,73.64
2022-12-28T14:31:24.643Z,73.94
2022-12-28T14:32:24.581Z,73.88
2022-12-28T14:33:25.299Z,73.88
2022-12-28T14:34:24.574Z,72.92
2022-12-28T14:35:24.545Z,73.13
2022-12-28T14:36:24.550Z,73.03
2022-12-28T14:37:24.524Z,72.62
2022-12-28T14:38:24.515Z,73.13
2022-12-28T14:39:24.528Z,73.64
2022-12-28T14:40:24.519Z,72.82
2022-12-28T14:41:24.487Z,72.92
2022-12-28T14:42:24.471Z,72.82
2022-12-28T14:43:24.468Z,72.82
2022-12-28T14:44:24.706Z,72.82
2022-12-28T14:45:24.464Z,73.23
2022-12-28T14:46:26.848Z,73.03
2022-12-28T14:47:24.420Z,73.44
2022-12-28T14:48:25.419Z,72.92
2022-12-28T14:49:24.443Z,72.92
2022-12-28T14:50:24.410Z,72.82
2022-12-28T14:51:24.391Z,72.82
2022-12-28T14:52:24.370Z,72.72
2022-12-28T14:53:24.542Z,73.03
2022-12-28T14:54:24.355Z,73.03
2022-12-28T14:55:24.339Z,72.72
2022-12-28T14:56:24.316Z,72.82
2022-12-28T14:57:24.295Z,73.13
2022-12-28T14:58:24.297Z,73.23
2022-12-28T14:59:24.285Z,73.03
2022-12-28T15:00:24.301Z,73.44
2022-12-28T15:01:24.421Z,72.82
2022-12-28T15:02:24.412Z,73.03
2022-12-28T15:03:24.302Z,73.13
2022-12-28T15:04:24.222Z,73.13
2022-12-28T15:05:24.224Z,73.13
2022-12-28T15:06:24.207Z,73.16
2022-12-28T15:07:24.186Z,73.16
2022-12-28T15:08:24.188Z,72.96
2022-12-28T15:09:24.180Z,73.16
2022-12-28T15:10:25.176Z,72.92
2022-12-28T15:11:24.133Z,73.16
2022-12-28T15:12:24.140Z,73.13
2022-12-28T15:13:24.111Z,73.23
2022-12-28T15:14:24.106Z,73.27
2022-12-28T15:15:24.119Z,73.33
2022-12-28T15:16:24.151Z,73.36
2022-12-28T15:17:28.286Z,73.13
2022-12-28T15:18:25.063Z,73.54
2022-12-28T15:19:24.058Z,73.74
2022-12-28T15:20:24.062Z,73.44
2022-12-28T15:21:24.055Z,73.68
2022-12-28T15:22:24.033Z,73.13
2022-12-28T15:23:24.011Z,72.92
2022-12-28T15:24:28.657Z,72.72
2022-12-28T15:25:25.009Z,73.23
2022-12-28T15:26:23.985Z,73.03
2022-12-28T15:27:23.966Z,72.72
2022-12-28T15:28:23.959Z,72.72
2022-12-28T15:29:40.000Z,73.33
2022-12-28T15:30:29.151Z,72.62
2022-12-28T15:31:23.953Z,73.33
2022-12-28T15:32:23.914Z,73.13
2022-12-28T15:33:23.923Z,72.72
2022-12-28T15:34:23.873Z,73.03
2022-12-28T15:35:23.881Z,73.33
2022-12-28T15:36:23.847Z,73.03
2022-12-28T15:37:23.858Z,72.82
2022-12-28T15:38:23.829Z,72.72
2022-12-28T15:39:23.833Z,72.82
2022-12-28T15:40:23.842Z,72.82
2022-12-28T15:41:23.821Z,73.03
2022-12-28T15:42:23.781Z,73.03
